createdAt,value
2023-06-08T00:04:05.733Z,100786.86
2023-06-08T00:09:04.773Z,100798.46
2023-06-08T00:14:04.802Z,100800.2
2023-06-08T00:19:04.398Z,100805.02
2023-06-08T00:24:05.359Z,100806.09
2023-06-08T00:29:04.455Z,100802.98
2023-06-08T00:34:04.603Z,100802.48
2023-06-08T00:39:04.821Z,100808.34
2023-06-08T00:44:05.073Z,100797.33
2023-06-08T00:49:07.972Z,100796.66
2023-06-08T00:54:05.059Z,100800.0
2023-06-08T00:59:05.757Z,100799.56
2023-06-08T01:04:06.046Z,100796.31000000001
2023-06-08T01:09:15.542Z,100794.8
2023-06-08T01:14:14.219Z,100796.41
2023-06-08T01:19:10.723Z,100796.54000000001
2023-06-08T01:24:12.296Z,100792.83
2023-06-08T01:29:06.241Z,100796.0
2023-06-08T01:34:05.609Z,100797.49
2023-06-08T01:39:11.365Z,100797.41
2023-06-08T01:44:06.878Z,100800.11
2023-06-08T01:49:06.410Z,100798.64
2023-06-08T01:54:06.850Z,100805.33
2023-06-08T01:59:04.464Z,100798.86
2023-06-08T02:04:05.051Z,100798.89
2023-06-08T02:09:04.467Z,100803.63
2023-06-08T02:14:04.572Z,100809.61
2023-06-08T02:19:04.357Z,100806.59000000001
2023-06-08T02:24:05.218Z,100810.38
2023-06-08T02:29:04.323Z,100810.49
2023-06-08T02:34:04.411Z,100807.56
2023-06-08T02:39:04.636Z,100808.4
2023-06-08T02:44:04.555Z,100803.25
2023-06-08T02:49:04.398Z,100801.87
2023-06-08T02:54:04.837Z,100802.92
2023-06-08T02:59:07.187Z,100802.62
2023-06-08T03:04:04.470Z,100807.64
2023-06-08T03:09:04.571Z,100815.66
2023-06-08T03:14:04.497Z,100813.7
2023-06-08T03:19:04.303Z,100822.48
2023-06-08T03:24:05.103Z,100821.70999999999
2023-06-08T03:29:04.526Z,100822.41
2023-06-08T03:34:04.797Z,100820.06
2023-06-08T03:39:05.081Z,100820.47
2023-06-08T03:44:05.750Z,100826.12000000001
2023-06-08T03:49:04.906Z,100825.5
2023-06-08T03:54:04.741Z,100823.85
2023-06-08T03:59:04.765Z,100826.64
2023-06-08T04:04:04.410Z,100826.98000000001
2023-06-08T04:09:04.982Z,100823.27
2023-06-08T04:14:04.414Z,100821.51
2023-06-08T04:19:04.288Z,100827.62
2023-06-08T04:24:05.756Z,100826.39
2023-06-08T04:29:04.497Z,100834.91
2023-06-08T04:34:04.384Z,100832.70999999999
2023-06-08T04:39:04.570Z,100835.19
2023-06-08T04:44:05.519Z,100837.44
2023-06-08T04:49:04.667Z,100839.48000000001
2023-06-08T04:54:04.689Z,100844.72
2023-06-08T04:59:04.367Z,100839.34000000001
2023-06-08T05:04:07.753Z,100842.88
2023-06-08T05:09:04.555Z,100842.21
2023-06-08T05:14:04.546Z,100844.04
2023-06-08T05:19:05.510Z,100841.31
2023-06-08T05:24:06.372Z,100848.56
2023-06-08T05:29:04.244Z,100848.29999999999
2023-06-08T05:34:04.584Z,100841.11
2023-06-08T05:39:05.091Z,100843.42
2023-06-08T05:44:04.659Z,100841.72
2023-06-08T05:49:04.437Z,100839.87
2023-06-08T05:54:04.921Z,100840.32999999999
2023-06-08T05:59:04.179Z,100838.51
2023-06-08T06:04:04.411Z,100837.19
2023-06-08T06:09:04.513Z,100831.9
2023-06-08T06:14:04.498Z,100833.94
2023-06-08T06:19:04.229Z,100833.34
2023-06-08T06:24:05.464Z,100837.78
2023-06-08T06:29:04.168Z,100832.0
2023-06-08T06:35:02.981Z,100825.44
2023-06-08T06:39:04.463Z,100818.59
2023-06-08T06:44:05.236Z,100814.76
2023-06-08T06:49:04.497Z,100815.0
2023-06-08T06:54:04.256Z,100820.73000000001
2023-06-08T06:59:05.569Z,100812.08
2023-06-08T07:04:05.375Z,100814.83
2023-06-08T07:09:04.515Z,100816.38
2023-06-08T07:14:04.168Z,100821.45000000001
2023-06-08T07:19:04.596Z,100814.73
2023-06-08T07:24:44.756Z,100819.22
2023-06-08T07:29:04.432Z,100806.19
2023-06-08T07:34:04.629Z,100803.99
2023-06-08T07:39:04.274Z,100801.2
2023-06-08T07:44:04.209Z,100801.28
2023-06-08T07:49:04.654Z,100799.53
2023-06-08T07:54:05.026Z,100794.83
2023-06-08T07:59:04.169Z,100791.76
2023-06-08T08:04:04.568Z,100792.31999999999
2023-06-08T08:09:04.375Z,100794.37000000001
2023-06-08T08:14:09.458Z,100789.15
2023-06-08T08:19:04.586Z,100798.6
2023-06-08T08:24:05.720Z,100793.52
2023-06-08T08:29:04.311Z,100787.95
2023-06-08T08:34:04.827Z,100777.72
2023-06-08T08:39:04.177Z,100775.54000000001
2023-06-08T08:44:08.683Z,100771.37
2023-06-08T08:49:08.997Z,100767.66
2023-06-08T08:54:05.331Z,100770.23000000001
2023-06-08T08:59:05.758Z,100769.67
2023-06-08T09:04:04.498Z,100770.26
2023-06-08T09:09:05.726Z,100767.81
2023-06-08T09:14:06.642Z,100763.59
2023-06-08T09:19:05.809Z,100760.55
2023-06-08T09:24:08.312Z,100747.49
2023-06-08T09:29:05.146Z,100747.27
2023-06-08T09:34:05.559Z,100743.34
2023-06-08T09:39:06.100Z,100735.91
2023-06-08T09:44:18.267Z,100735.35
2023-06-08T09:49:06.545Z,100732.0
2023-06-08T09:54:06.704Z,100733.34999999999
2023-06-08T09:59:07.603Z,100735.91
2023-06-08T10:04:14.055Z,100720.98
2023-06-08T10:09:05.944Z,100717.67
2023-06-08T10:14:04.427Z,100714.63
2023-06-08T10:19:04.643Z,100721.12
2023-06-08T10:24:05.747Z,100715.19
2023-06-08T10:29:20.748Z,100701.92
2023-06-08T10:34:06.335Z,100699.71
2023-06-08T10:39:07.213Z,100702.03
2023-06-08T10:44:04.522Z,100688.72
2023-06-08T10:49:05.282Z,100683.56
2023-06-08T10:54:06.397Z,100697.67
2023-06-08T10:59:04.129Z,100693.89
2023-06-08T11:04:09.046Z,100690.77
2023-06-08T11:09:04.250Z,100680.75
2023-06-08T11:14:04.109Z,100683.39
2023-06-08T11:19:09.159Z,100672.05
2023-06-08T11:24:04.450Z,100667.74
2023-06-08T11:29:04.137Z,100668.17
2023-06-08T11:34:04.322Z,100658.90000000001
2023-06-08T11:39:04.296Z,100655.56
2023-06-08T11:44:06.254Z,100640.78
2023-06-08T11:49:07.482Z,100644.94
2023-06-08T11:54:04.547Z,100639.06
2023-06-08T11:59:04.243Z,100647.19
2023-06-08T12:04:13.675Z,100629.51000000001
2023-06-08T12:09:06.594Z,100635.77
2023-06-08T12:14:04.218Z,100631.22
2023-06-08T12:19:06.649Z,100631.97
2023-06-08T12:24:04.863Z,100636.65999999999
2023-06-08T12:29:04.990Z,100633.29
2023-06-08T12:34:04.774Z,100629.66
2023-06-08T12:39:04.297Z,100622.18000000001
2023-06-08T12:44:04.085Z,100610.42
2023-06-08T12:49:04.396Z,100625.17
2023-06-08T12:54:04.125Z,100610.16
2023-06-08T12:59:04.063Z,100595.25
2023-06-08T13:04:04.530Z,100602.53
2023-06-08T13:09:04.086Z,100598.83
2023-06-08T13:14:04.220Z,100593.52
2023-06-08T13:19:04.601Z,100577.51
2023-06-08T13:24:06.954Z,100570.36
2023-06-08T13:29:04.001Z,100574.8
2023-06-08T13:34:05.332Z,100577.5
2023-06-08T13:39:04.100Z,100568.76999999999
2023-06-08T13:44:04.376Z,100565.19
2023-06-08T13:49:04.605Z,100572.91
2023-06-08T13:54:04.129Z,100567.18
2023-06-08T13:59:05.215Z,100561.64
2023-06-08T14:04:04.390Z,100565.4
2023-06-08T14:09:05.186Z,100560.12
2023-06-08T14:14:04.056Z,100563.47
2023-06-08T14:19:04.583Z,100551.44
2023-06-08T14:24:04.539Z,100553.75
2023-06-08T14:29:04.104Z,100548.04000000001
2023-06-08T14:34:04.264Z,100548.81
2023-06-08T14:39:04.043Z,100548.89
2023-06-08T14:44:04.049Z,100542.04999999999
2023-06-08T14:49:04.332Z,100543.3
2023-06-08T14:54:04.045Z,100541.14
2023-06-08T14:59:04.195Z,100535.5
2023-06-08T15:04:06.274Z,100536.58
2023-06-08T15:09:04.141Z,100526.92
2023-06-08T15:14:04.119Z,100528.06
2023-06-08T15:19:04.402Z,100537.14
2023-06-08T15:24:05.084Z,100530.59
2023-06-08T15:29:04.099Z,100535.65999999999
2023-06-08T15:34:04.119Z,100522.05
2023-06-08T15:39:04.499Z,100528.3
2023-06-08T15:44:04.749Z,100519.97
2023-06-08T15:49:04.195Z,100512.51999999999
2023-06-08T15:54:04.053Z,100516.74
2023-06-08T15:59:04.425Z,100518.52
2023-06-08T16:04:04.103Z,100518.25
2023-06-08T16:09:04.068Z,100523.53
2023-06-08T16:14:04.225Z,100513.01
2023-06-08T16:19:04.617Z,100518.26999999999
2023-06-08T16:24:04.387Z,100521.97
2023-06-08T16:29:04.000Z,100521.86
2023-06-08T16:34:04.492Z,100517.07
2023-06-08T16:39:04.457Z,100508.67
2023-06-08T16:44:04.487Z,100508.12
2023-06-08T16:49:04.421Z,100509.93
2023-06-08T16:54:05.286Z,100509.38
2023-06-08T16:59:04.031Z,100505.45
2023-06-08T17:04:04.316Z,100500.11
2023-06-08T17:09:04.058Z,100505.35
2023-06-08T17:14:04.225Z,100511.1
2023-06-08T17:19:04.498Z,100512.34
2023-06-08T17:24:04.746Z,100510.06999999999
2023-06-08T17:29:03.918Z,100516.54
2023-06-08T17:34:04.772Z,100518.12
2023-06-08T17:39:03.980Z,100528.68999999999
2023-06-08T17:44:04.232Z,100528.0
2023-06-08T17:49:07.439Z,100531.67
2023-06-08T17:54:04.243Z,100536.36
2023-06-08T17:59:04.167Z,100541.65000000001
2023-06-08T18:04:04.941Z,100535.29999999999
2023-06-08T18:09:04.110Z,100534.7
2023-06-08T18:14:04.085Z,100538.65
2023-06-08T18:19:04.078Z,100546.19
2023-06-08T18:24:04.718Z,100545.81
2023-06-08T18:29:04.102Z,100550.78
2023-06-08T18:34:04.686Z,100552.20000000001
2023-06-08T18:38:06.575Z,100547.99
2023-06-08T18:39:03.959Z,100547.99
2023-06-08T18:44:04.410Z,100549.31
2023-06-08T18:49:04.024Z,100547.34999999999
2023-06-08T18:54:04.005Z,100551.0
2023-06-08T18:59:05.855Z,100556.67
2023-06-08T19:04:04.003Z,100561.08
2023-06-08T19:09:04.040Z,100560.83
2023-06-08T19:14:03.852Z,100570.97
2023-06-08T19:19:06.785Z,100569.44
2023-06-08T19:24:07.003Z,100575.27
2023-06-08T19:29:05.426Z,100576.73999999999
2023-06-08T19:34:04.421Z,100578.8
2023-06-08T19:39:05.549Z,100576.19
2023-06-08T19:44:03.983Z,100577.45
2023-06-08T19:49:04.280Z,100586.61
2023-06-08T19:54:03.978Z,100589.38
2023-06-08T19:59:03.902Z,100590.5
2023-06-08T20:04:04.376Z,100588.67
2023-06-08T20:09:03.848Z,100583.34
2023-06-08T20:14:03.873Z,100588.44
2023-06-08T20:19:04.209Z,100587.95
2023-06-08T20:24:05.672Z,100586.58
2023-06-08T20:29:03.970Z,100585.77
2023-06-08T20:34:04.161Z,100589.34000000001
2023-06-08T20:39:04.833Z,100591.52
2023-06-08T20:44:06.380Z,100592.38
2023-06-08T20:49:05.014Z,100594.45
2023-06-08T20:54:04.116Z,100597.34999999999
2023-06-08T20:59:04.132Z,100595.09000000001
2023-06-08T21:04:04.394Z,100598.63
2023-06-08T21:09:03.863Z,100597.69
2023-06-08T21:14:03.901Z,100601.95999999999
2023-06-08T21:19:04.881Z,100597.92
2023-06-08T21:24:04.098Z,100596.51
2023-06-08T21:29:06.247Z,100602.65000000001
2023-06-08T21:34:03.868Z,100603.8
2023-06-08T21:39:04.081Z,100604.0
2023-06-08T21:44:03.807Z,100606.72
2023-06-08T21:49:04.175Z,100608.97
2023-06-08T21:54:04.045Z,100615.4
2023-06-08T21:59:04.033Z,100617.57
2023-06-08T22:04:04.519Z,100618.05
2023-06-08T22:09:03.998Z,100607.83
2023-06-08T22:14:03.986Z,100614.95
2023-06-08T22:19:04.604Z,100615.7
2023-06-08T22:24:05.598Z,100614.06
2023-06-08T22:29:03.894Z,100616.78
2023-06-08T22:34:03.946Z,100609.89
2023-06-08T22:39:03.796Z,100609.44
2023-06-08T22:44:04.267Z,100609.42
2023-06-08T22:49:04.239Z,100613.07
2023-06-08T22:54:04.158Z,100613.0
2023-06-08T22:59:03.876Z,100612.0
2023-06-08T23:04:04.248Z,100606.87000000001
2023-06-08T23:09:03.957Z,100604.78
2023-06-08T23:14:03.799Z,100602.34
2023-06-08T23:19:03.972Z,100599.81
2023-06-08T23:24:04.371Z,100596.75
2023-06-08T23:29:03.884Z,100588.78
2023-06-08T23:34:04.961Z,100591.6
2023-06-08T23:39:04.441Z,100589.54
2023-06-08T23:44:04.006Z,100591.78
2023-06-08T23:49:03.933Z,100589.79000000001
2023-06-08T23:54:03.881Z,100589.88
2023-06-08T23:59:04.077Z,100586.47
